Time;durP1;ratioP1;P1;durP2;ratioP2;P2;SDS_P1;SDS_P2;PMS_P1;PMS_P2;Temp;Humidity;BMP_temperature;BMP_pressure;BME280_temperature;BME280_humidity;BME280_pressure;Samples;Min_cycle;Max_cycle;Signal;HPM_P1;HPM_P2
2022/07/06 00:01:15;;;;;;;;;;;;;;;-140.72;100.00;52459.84;5030209;28;19917;-70
2022/07/06 00:03:41;;;;;;;;;;;;;;;-140.72;100.00;52447.69;5019474;28;19945;-68
2022/07/06 00:06:06;;;;;;;;;;;;;;;-140.72;100.00;52478.13;5019553;28;20025;-68
2022/07/06 00:08:31;;;;;;;;;;;;;;;-140.72;100.00;52417.25;5028046;28;19917;-69
2022/07/06 00:10:56;;;;;;;;;;;;;;;-140.72;100.00;52484.19;5030308;28;19933;-69
2022/07/06 00:13:22;;;;;;;;;;;;;;;-140.72;100.00;52455.78;5021750;28;20035;-69
2022/07/06 00:15:47;;;;;;;;;;;;;;;-140.72;100.00;52427.38;5027862;28;19929;-69
2022/07/06 00:18:12;;;;;;;;;;;;;;;-140.72;100.00;52480.16;5021185;28;19993;-69
2022/07/06 00:20:38;;;;;;;;;;;;;;;-140.72;100.00;52472.03;5016450;28;20316;-69
2022/07/06 00:23:03;;;;;;;;;;;;;;;-140.72;100.00;52482.16;5023740;28;19917;-69
2022/07/06 00:25:28;;;;;;;;;;;;;;;-140.72;100.00;52476.09;5027032;28;19976;-70
2022/07/06 00:27:53;;;;;;;;;;;;;;;-140.72;100.00;52480.16;5026817;28;19948;-68
2022/07/06 00:30:19;;;;;;;;;;;;;;;-140.72;100.00;52431.44;5014190;28;19921;-68
2022/07/06 00:32:44;;;;;;;;;;;;;;;-140.72;100.00;52488.25;5016671;28;19941;-69
2022/07/06 00:35:09;;;;;;;;;;;;;;;-140.72;100.00;52447.69;5013831;28;19918;-68
2022/07/06 00:37:34;;;;;;;;;;;;;;;-140.72;100.00;52443.63;5022540;28;19918;-68
2022/07/06 00:39:59;;;;;;;;;;;;;;;-140.72;100.00;52447.69;5021009;28;19917;-68
2022/07/06 00:42:27;;;;;;;;;;;;;;;-140.72;100.00;52427.38;5028199;28;19941;-68
2022/07/06 00:44:52;;;;;;;;;;;;;;;-140.72;100.00;52433.47;5017246;28;19918;-69
2022/07/06 00:47:17;;;;;;;;;;;;;;;-140.72;100.00;52484.19;5020698;28;20268;-68
2022/07/06 00:52:26;;;;;;;;;;;;;;;-140.72;100.00;52463.91;5027416;28;19932;-69
2022/07/06 00:54:51;;;;;;;;;;;;;;;-140.72;100.00;52472.03;5029521;28;19918;-69
2022/07/06 00:57:17;;;;;;;;;;;;;;;-140.72;100.00;52463.91;5028319;28;19925;-68
2022/07/06 00:59:42;;;;;;;;;;;;;;;-140.72;100.00;52435.50;5027937;28;19918;-68
2022/07/06 01:02:07;;;;;;;;;;;;;;;-140.72;100.00;52482.16;5026901;28;19918;-68
2022/07/06 01:04:33;;;;;;;;;;;;;;;-140.72;100.00;52470.00;5027993;28;19921;-68
2022/07/06 01:06:58;;;;;;;;;;;;;;;-140.72;100.00;52439.56;5027631;28;19925;-68
2022/07/06 01:09:23;;;;;;;;;;;;;;;-140.72;100.00;52451.72;5028528;28;19932;-69
2022/07/06 01:11:49;;;;;;;;;;;;;;;-140.72;100.00;52488.25;5027090;28;19921;-69
2022/07/06 01:14:15;;;;;;;;;;;;;;;-140.72;100.00;52490.28;5023468;28;19917;-68
2022/07/06 01:16:40;;;;;;;;;;;;;;;-140.72;100.00;52510.59;5027848;28;20008;-69
2022/07/06 01:19:05;;;;;;;;;;;;;;;-140.72;100.00;52443.63;5014999;28;20118;-68
2022/07/06 01:21:30;;;;;;;;;;;;;;;-140.72;100.00;52492.31;5032352;28;20008;-68
2022/07/06 01:23:55;;;;;;;;;;;;;;;-140.72;100.00;52470.00;5026971;28;19921;-68
2022/07/06 01:26:21;;;;;;;;;;;;;;;-140.72;100.00;52463.91;5025827;28;19985;-69
2022/07/06 01:28:48;;;;;;;;;;;;;;;-140.72;100.00;52500.44;5018292;28;19918;-69
2022/07/06 01:31:23;;;;;;;;;;;;;;;-140.72;100.00;52496.38;5024051;28;19924;-69
2022/07/06 01:33:49;;;;;;;;;;;;;;;-140.72;100.00;52435.50;5036839;28;19921;-68
2022/07/06 01:36:14;;;;;;;;;;;;;;;-140.72;100.00;52463.91;5030222;28;19918;-68
2022/07/06 01:38:44;;;;;;;;;;;;;;;-140.72;100.00;52504.50;5026595;28;19918;-68
2022/07/06 01:41:09;;;;;;;;;;;;;;;-140.72;100.00;52455.78;5027538;28;19929;-69
2022/07/06 01:43:34;;;;;;;;;;;;;;;-140.72;100.00;52439.56;5027452;28;19917;-68
2022/07/06 01:45:59;;;;;;;;;;;;;;;-140.72;100.00;52457.81;5028133;28;19989;-68
2022/07/06 01:48:25;;;;;;;;;;;;;;;-140.72;100.00;52496.38;5026224;28;19928;-67
2022/07/06 01:50:50;;;;;;;;;;;;;;;-140.72;100.00;52457.81;5015474;28;19918;-67
2022/07/06 01:53:15;;;;;;;;;;;;;;;-140.72;100.00;52467.97;5038938;28;19932;-69
2022/07/06 01:55:40;;;;;;;;;;;;;;;-140.72;100.00;52459.84;5027655;28;19918;-69
2022/07/06 01:58:05;;;;;;;;;;;;;;;-140.72;100.00;52449.72;5027634;28;19993;-69
2022/07/06 02:00:31;;;;;;;;;;;;;;;-140.72;100.00;52459.84;5028525;28;19918;-69
2022/07/06 02:02:56;;;;;;;;;;;;;;;-140.72;100.00;52488.25;5027630;28;19918;-67
2022/07/06 02:05:21;;;;;;;;;;;;;;;-140.72;100.00;52500.44;5028014;28;20329;-68
2022/07/06 02:07:48;;;;;;;;;;;;;;;-140.72;100.00;52461.88;5026526;28;19917;-68
2022/07/06 02:10:13;;;;;;;;;;;;;;;-140.72;100.00;52447.69;5027069;28;19925;-68
2022/07/06 02:12:38;;;;;;;;;;;;;;;-140.72;100.00;52467.97;5023887;28;19921;-68
2022/07/06 02:15:04;;;;;;;;;;;;;;;-140.72;100.00;52472.03;5019577;28;19986;-68
2022/07/06 02:17:29;;;;;;;;;;;;;;;-140.72;100.00;52484.19;5022421;28;19917;-68
2022/07/06 02:19:54;;;;;;;;;;;;;;;-140.72;100.00;52472.03;5024101;28;19921;-68
2022/07/06 02:22:19;;;;;;;;;;;;;;;-140.72;100.00;52478.13;5024473;28;19917;-68
2022/07/06 02:24:44;;;;;;;;;;;;;;;-140.72;100.00;52467.97;5027132;28;20010;-68
2022/07/06 02:27:10;;;;;;;;;;;;;;;-140.72;100.00;52453.75;5015252;28;20299;-69
2022/07/06 02:29:35;;;;;;;;;;;;;;;-140.72;100.00;52488.25;5021671;28;19922;-69
2022/07/06 02:32:00;;;;;;;;;;;;;;;-140.72;100.00;52476.09;5020635;28;19921;-68
2022/07/06 02:34:26;;;;;;;;;;;;;;;-140.72;100.00;52463.91;5021030;28;19922;-67
2022/07/06 02:36:51;;;;;;;;;;;;;;;-140.72;100.00;52467.97;5020097;28;19933;-69
2022/07/06 02:39:16;;;;;;;;;;;;;;;-140.72;100.00;52439.56;5021366;28;19989;-69
2022/07/06 02:41:41;;;;;;;;;;;;;;;-140.72;100.00;52472.03;5020142;28;19918;-68
2022/07/06 02:44:07;;;;;;;;;;;;;;;-140.72;100.00;52447.69;5021912;28;19997;-68
2022/07/06 02:46:32;;;;;;;;;;;;;;;-140.72;100.00;52486.22;5021554;28;20012;-68
2022/07/06 02:48:57;;;;;;;;;;;;;;;-140.72;100.00;52504.50;5019168;28;19996;-68
2022/07/06 02:51:23;;;;;;;;;;;;;;;-140.72;100.00;52467.97;5016888;28;20310;-69
2022/07/06 02:53:48;;;;;;;;;;;;;;;-140.72;100.00;52480.16;5016337;28;19921;-69
2022/07/06 02:56:13;;;;;;;;;;;;;;;-140.72;100.00;52482.16;5031125;28;19920;-69
2022/07/06 02:58:39;;;;;;;;;;;;;;;-140.72;100.00;52451.72;5031064;28;20007;-69
2022/07/06 03:01:04;;;;;;;;;;;;;;;-140.72;100.00;52482.16;5030968;28;19918;-68
2022/07/06 03:03:29;;;;;;;;;;;;;;;-140.72;100.00;52459.84;5029491;28;19925;-68
2022/07/06 03:05:54;;;;;;;;;;;;;;;-140.72;100.00;52520.72;5018774;28;19997;-68
2022/07/06 03:08:20;;;;;;;;;;;;;;;-140.72;100.00;52472.03;5025658;28;19929;-68
2022/07/06 03:10:45;;;;;;;;;;;;;;;-140.72;100.00;52496.38;5030429;28;20346;-68
2022/07/06 03:13:10;;;;;;;;;;;;;;;-140.72;100.00;52467.97;5025919;28;19924;-67
2022/07/06 03:15:35;;;;;;;;;;;;;;;-140.72;100.00;52470.00;5024989;28;19969;-69
2022/07/06 03:18:00;;;;;;;;;;;;;;;-140.72;100.00;52451.72;5032894;28;19917;-68
2022/07/06 03:20:27;;;;;;;;;;;;;;;-140.72;100.00;52490.28;5030275;28;19933;-68
2022/07/06 03:22:52;;;;;;;;;;;;;;;-140.72;100.00;52476.09;5029146;28;19917;-68
2022/07/06 03:25:17;;;;;;;;;;;;;;;-140.72;100.00;52423.31;5029682;28;20035;-69
2022/07/06 03:27:43;;;;;;;;;;;;;;;-140.72;100.00;52486.22;5026700;28;19928;-67
2022/07/06 03:30:08;;;;;;;;;;;;;;;-140.72;100.00;52463.91;5029085;28;19968;-68
2022/07/06 03:32:33;;;;;;;;;;;;;;;-140.72;100.00;52445.66;5029387;28;19944;-68
2022/07/06 03:34:58;;;;;;;;;;;;;;;-140.72;100.00;52455.78;5028379;28;19917;-69
2022/07/06 03:37:24;;;;;;;;;;;;;;;-140.72;100.00;52484.19;5030264;28;19917;-69
2022/07/06 03:39:49;;;;;;;;;;;;;;;-140.72;100.00;52451.72;5025594;28;19944;-69
2022/07/06 03:42:14;;;;;;;;;;;;;;;-140.72;100.00;52504.50;5029686;28;19929;-69
2022/07/06 03:44:39;;;;;;;;;;;;;;;-140.72;100.00;52474.06;5015704;28;19932;-68
2022/07/06 03:47:04;;;;;;;;;;;;;;;-140.72;100.00;52484.19;5029840;28;19953;-68
2022/07/06 03:49:30;;;;;;;;;;;;;;;-140.72;100.00;52439.56;5029343;28;19917;-68
2022/07/06 03:51:55;;;;;;;;;;;;;;;-140.72;100.00;52476.09;5029643;28;19953;-67
2022/07/06 03:54:21;;;;;;;;;;;;;;;-140.72;100.00;52457.81;5029595;28;20345;-69
2022/07/06 03:56:46;;;;;;;;;;;;;;;-140.72;100.00;52437.53;5029346;28;19953;-68
2022/07/06 03:59:11;;;;;;;;;;;;;;;-140.72;100.00;52500.44;5030659;28;19918;-68
2022/07/06 04:01:36;;;;;;;;;;;;;;;-140.72;100.00;52445.66;5028334;28;19917;-67
2022/07/06 04:04:01;;;;;;;;;;;;;;;-140.72;100.00;52461.88;5030497;28;19917;-68
2022/07/06 04:06:27;;;;;;;;;;;;;;;-140.72;100.00;52463.91;5029575;28;20286;-68
2022/07/06 04:08:52;;;;;;;;;;;;;;;-140.72;100.00;52439.56;5028605;28;19989;-68
2022/07/06 04:11:17;;;;;;;;;;;;;;;-140.72;100.00;52445.66;5016725;28;19918;-69
2022/07/06 04:13:42;;;;;;;;;;;;;;;-140.72;100.00;52463.91;5027528;28;19940;-68
2022/07/06 04:16:08;;;;;;;;;;;;;;;-140.72;100.00;52429.41;5027907;28;20004;-68
2022/07/06 04:18:33;;;;;;;;;;;;;;;-140.72;100.00;52447.69;5027610;28;19917;-69
2022/07/06 04:20:59;;;;;;;;;;;;;;;-140.72;100.00;52429.41;5030037;28;19932;-67
2022/07/06 04:23:24;;;;;;;;;;;;;;;-140.72;100.00;52463.91;5018650;28;19929;-69
2022/07/06 04:25:49;;;;;;;;;;;;;;;-140.72;100.00;52455.78;5022625;28;19925;-68
2022/07/06 04:28:14;;;;;;;;;;;;;;;-140.72;100.00;52463.91;5021037;28;19917;-69
2022/07/06 04:30:40;;;;;;;;;;;;;;;-140.72;100.00;52433.47;5031388;28;19932;-67
2022/07/06 04:33:05;;;;;;;;;;;;;;;-140.72;100.00;52411.16;5029351;28;19925;-68
2022/07/06 04:35:30;;;;;;;;;;;;;;;-140.72;100.00;52451.72;5040337;28;19941;-68
2022/07/06 04:37:55;;;;;;;;;;;;;;;-140.72;100.00;52427.38;5033491;28;19925;-66
2022/07/06 04:40:21;;;;;;;;;;;;;;;-140.72;100.00;52433.47;5026963;28;19926;-68
2022/07/06 04:42:46;;;;;;;;;;;;;;;-140.72;100.00;52459.84;5012711;28;19917;-68
2022/07/06 04:45:12;;;;;;;;;;;;;;;-140.72;100.00;52433.47;5028217;28;19940;-68
2022/07/06 04:47:37;;;;;;;;;;;;;;;-140.72;100.00;52419.28;5030765;28;19924;-69
2022/07/06 04:50:03;;;;;;;;;;;;;;;-140.72;100.00;52433.47;5037996;28;19917;-69
2022/07/06 04:52:28;;;;;;;;;;;;;;;-140.72;100.00;52419.28;5025512;28;19979;-68
2022/07/06 04:54:56;;;;;;;;;;;;;;;-140.72;100.00;52405.06;5028257;28;20030;-68
2022/07/06 04:57:21;;;;;;;;;;;;;;;-140.72;100.00;52394.91;5014559;28;19960;-68
2022/07/06 04:59:47;;;;;;;;;;;;;;;-140.72;100.00;52455.78;5026672;28;19967;-69
2022/07/06 05:02:12;;;;;;;;;;;;;;;-140.72;100.00;52396.94;5027485;28;20048;-68
2022/07/06 05:04:37;;;;;;;;;;;;;;;-140.72;100.00;52435.50;5027185;28;19921;-69
2022/07/06 05:07:02;;;;;;;;;;;;;;;-140.72;100.00;52437.53;5027926;28;20335;-71
2022/07/06 05:09:28;;;;;;;;;;;;;;;-140.72;100.00;52405.06;5030395;28;19922;-67
2022/07/06 05:11:53;;;;;;;;;;;;;;;-140.72;100.00;52386.81;5034724;28;19921;-69
2022/07/06 05:14:18;;;;;;;;;;;;;;;-140.72;100.00;52449.72;5024695;28;19921;-68
2022/07/06 05:16:43;;;;;;;;;;;;;;;-140.72;100.00;52431.44;5022279;28;20021;-68
2022/07/06 05:19:09;;;;;;;;;;;;;;;-140.72;100.00;52429.41;5013975;28;19918;-70
2022/07/06 05:21:34;;;;;;;;;;;;;;;-140.72;100.00;52455.78;5010791;28;19943;-68
2022/07/06 05:23:59;;;;;;;;;;;;;;;-140.72;100.00;52459.84;5010524;28;19918;-69
2022/07/06 05:26:24;;;;;;;;;;;;;;;-140.72;100.00;52431.44;5017029;28;19949;-71
2022/07/06 05:28:49;;;;;;;;;;;;;;;-140.72;100.00;52398.97;5018169;28;19921;-74
2022/07/06 05:31:15;;;;;;;;;;;;;;;-140.72;100.00;52447.69;5015811;28;19928;-73
2022/07/06 05:33:40;;;;;;;;;;;;;;;-140.72;100.00;52421.28;5003283;28;20017;-73
2022/07/06 05:36:05;;;;;;;;;;;;;;;-140.72;100.00;52374.63;5013270;28;19925;-72
2022/07/06 05:38:31;;;;;;;;;;;;;;;-140.72;100.00;52427.38;5012081;28;19929;-73
2022/07/06 05:40:56;;;;;;;;;;;;;;;-140.72;100.00;52386.81;5016654;28;19996;-76
2022/07/06 05:43:21;;;;;;;;;;;;;;;-140.72;100.00;52407.09;5010563;28;19922;-74
2022/07/06 05:45:46;;;;;;;;;;;;;;;-140.72;100.00;52398.97;5009524;28;19968;-72
2022/07/06 05:50:56;;;;;;;;;;;;;;;-140.72;100.00;52384.78;5028753;28;19955;-67
2022/07/06 05:53:21;;;;;;;;;;;;;;;-140.72;100.00;52394.91;5039137;28;19928;-69
2022/07/06 05:55:46;;;;;;;;;;;;;;;-140.72;100.00;52433.47;5031753;28;19984;-69
2022/07/06 05:58:12;;;;;;;;;;;;;;;-140.72;100.00;52411.16;5028439;28;19928;-69
2022/07/06 06:00:37;;;;;;;;;;;;;;;-140.72;100.00;52376.66;5014959;28;19940;-67
2022/07/06 06:03:02;;;;;;;;;;;;;;;-140.72;100.00;52386.81;5029225;28;19917;-68
2022/07/06 06:05:27;;;;;;;;;;;;;;;-140.72;100.00;52382.75;5029079;28;20208;-69
2022/07/06 06:07:53;;;;;;;;;;;;;;;-140.72;100.00;52358.41;5028388;28;19921;-68
2022/07/06 06:10:19;;;;;;;;;;;;;;;-140.72;100.00;52354.34;5024304;28;19918;-68
2022/07/06 06:12:44;;;;;;;;;;;;;;;-140.72;100.00;52356.38;5011097;28;19928;-73
2022/07/06 06:15:11;;;;;;;;;;;;;;;-140.72;100.00;52366.50;5017110;28;19921;-68
2022/07/06 06:17:36;;;;;;;;;;;;;;;-140.72;100.00;52358.41;5024428;28;19964;-67
2022/07/06 06:20:03;;;;;;;;;;;;;;;-140.72;100.00;52340.13;5026898;28;19918;-69
2022/07/06 06:22:28;;;;;;;;;;;;;;;-140.72;100.00;52344.19;5026180;28;20279;-68
2022/07/06 06:24:53;;;;;;;;;;;;;;;-140.72;100.00;52332.03;5015002;28;19928;-68
2022/07/06 06:27:18;;;;;;;;;;;;;;;-140.72;100.00;52368.53;5028599;28;19936;-69
2022/07/06 06:29:44;;;;;;;;;;;;;;;-140.72;100.00;52352.31;5023194;28;19918;-67
2022/07/06 06:32:12;;;;;;;;;;;;;;;-140.72;100.00;52360.44;5028744;28;20072;-67
2022/07/06 06:34:37;;;;;;;;;;;;;;;-140.72;100.00;52352.31;5029736;28;19991;-68
2022/07/06 06:37:03;;;;;;;;;;;;;;;-140.72;100.00;52354.34;5035635;28;19920;-68
2022/07/06 06:39:28;;;;;;;;;;;;;;;-140.72;100.00;52334.03;5019228;28;19917;-69
2022/07/06 06:41:53;;;;;;;;;;;;;;;-140.72;100.00;52346.22;5028863;28;19918;-69
2022/07/06 06:44:18;;;;;;;;;;;;;;;-140.72;100.00;52342.16;5009886;28;20057;-69
2022/07/06 06:46:44;;;;;;;;;;;;;;;-140.72;100.00;52307.66;5014350;28;20125;-69
2022/07/06 06:49:09;;;;;;;;;;;;;;;-140.72;100.00;52340.13;5020623;28;19921;-69
2022/07/06 06:51:34;;;;;;;;;;;;;;;-140.72;100.00;52348.25;5021591;28;19917;-69
2022/07/06 06:54:00;;;;;;;;;;;;;;;-140.72;100.00;52352.31;5017328;28;20012;-68
2022/07/06 06:56:25;;;;;;;;;;;;;;;-140.72;100.00;52303.59;5010992;28;19997;-70
2022/07/06 06:58:50;;;;;;;;;;;;;;;-140.72;100.00;52340.13;5017924;28;19917;-70
2022/07/06 07:01:15;;;;;;;;;;;;;;;-140.72;100.00;52334.03;5022342;28;19932;-71
2022/07/06 07:03:41;;;;;;;;;;;;;;;-140.72;100.00;52309.69;5022061;28;20001;-69
2022/07/06 07:06:06;;;;;;;;;;;;;;;-140.72;100.00;52334.03;5028688;28;19952;-70
2022/07/06 07:08:32;;;;;;;;;;;;;;;-140.72;100.00;52283.31;5020486;28;19964;-72
2022/07/06 07:10:57;;;;;;;;;;;;;;;-140.72;100.00;52323.91;5025402;28;19917;-68
2022/07/06 07:13:22;;;;;;;;;;;;;;;-140.72;100.00;52303.59;5031320;28;19981;-70
2022/07/06 07:15:48;;;;;;;;;;;;;;;-140.72;100.00;52285.34;5010506;28;19921;-75
2022/07/06 07:18:13;;;;;;;;;;;;;;;-140.72;100.00;52315.78;5023243;28;20209;-73
2022/07/06 07:20:38;;;;;;;;;;;;;;;-140.72;100.00;52285.34;5024853;28;19905;-68
2022/07/06 07:23:03;;;;;;;;;;;;;;;-140.72;100.00;52330.00;5021204;28;19941;-67
2022/07/06 07:25:29;;;;;;;;;;;;;;;-140.72;100.00;52269.13;5024479;28;19948;-67
2022/07/06 07:27:54;;;;;;;;;;;;;;;-140.72;100.00;52297.53;5023186;28;19968;-68
2022/07/06 07:30:19;;;;;;;;;;;;;;;-140.72;100.00;52289.41;5036359;28;19968;-68
2022/07/06 07:32:45;;;;;;;;;;;;;;;-140.72;100.00;52338.09;5025587;28;19928;-67
2022/07/06 07:35:10;;;;;;;;;;;;;;;-140.72;100.00;52242.75;5019411;28;20290;-67
2022/07/06 07:37:35;;;;;;;;;;;;;;;-140.72;100.00;52301.59;5005887;28;19921;-68
2022/07/06 07:40:00;;;;;;;;;;;;;;;-140.72;100.00;52289.41;5023654;28;19918;-67
2022/07/06 07:42:26;;;;;;;;;;;;;;;-140.72;100.00;52291.44;5022505;28;20035;-67
2022/07/06 07:44:51;;;;;;;;;;;;;;;-140.72;100.00;52244.78;5015131;28;19918;-68
2022/07/06 07:47:16;;;;;;;;;;;;;;;-140.72;100.00;52258.97;5021506;28;19924;-67
2022/07/06 07:49:41;;;;;;;;;;;;;;;-140.72;100.00;52263.03;5020264;28;20346;-67
2022/07/06 07:52:07;;;;;;;;;;;;;;;-140.72;100.00;52230.56;5009134;28;19918;-67
2022/07/06 07:54:32;;;;;;;;;;;;;;;-140.72;100.00;52250.84;5014223;28;19933;-68
2022/07/06 07:56:58;;;;;;;;;;;;;;;-140.72;100.00;52256.94;5019749;28;19932;-67
2022/07/06 07:59:23;;;;;;;;;;;;;;;-140.72;100.00;52230.56;5015550;28;20374;-67
2022/07/06 08:01:49;;;;;;;;;;;;;;;-140.72;100.00;52228.53;5022223;28;19917;-68
2022/07/06 08:04:14;;;;;;;;;;;;;;;-140.72;100.00;52238.69;5013506;28;19922;-68
2022/07/06 08:06:39;;;;;;;;;;;;;;;-140.72;100.00;52230.56;5017819;28;19972;-68
2022/07/06 08:09:07;;;;;;;;;;;;;;;-140.72;100.00;52214.34;5015208;28;19928;-68
2022/07/06 08:11:32;;;;;;;;;;;;;;;-140.72;100.00;52196.06;5023974;28;19985;-67
2022/07/06 08:13:57;;;;;;;;;;;;;;;-140.72;100.00;52187.97;5022046;28;19944;-67
2022/07/06 08:16:22;;;;;;;;;;;;;;;-140.72;100.00;52189.97;5018346;28;19969;-67
2022/07/06 08:18:48;;;;;;;;;;;;;;;-140.72;100.00;52167.66;5017879;28;19959;-67
2022/07/06 08:21:13;;;;;;;;;;;;;;;-140.72;100.00;52159.56;5025304;28;19929;-68
2022/07/06 08:23:38;;;;;;;;;;;;;;;-140.72;100.00;52183.91;5027896;28;19981;-67
2022/07/06 08:26:03;;;;;;;;;;;;;;;-140.72;100.00;52163.59;5023347;28;20295;-67
2022/07/06 08:28:29;;;;;;;;;;;;;;;-140.72;100.00;52171.72;5022301;28;19940;-67
2022/07/06 08:30:54;;;;;;;;;;;;;;;-140.72;100.00;52155.50;5011140;28;19980;-67
2022/07/06 08:33:20;;;;;;;;;;;;;;;-140.72;100.00;52157.53;5023861;28;20004;-67
2022/07/06 08:35:45;;;;;;;;;;;;;;;-140.72;100.00;52135.19;5024300;28;19929;-68
2022/07/06 08:38:10;;;;;;;;;;;;;;;-140.72;100.00;52159.56;5022590;28;19917;-67
2022/07/06 08:40:38;;;;;;;;;;;;;;;-140.72;100.00;52171.72;5021489;28;20078;-67
2022/07/06 08:43:03;;;;;;;;;;;;;;;-140.72;100.00;52159.56;5004804;28;19980;-68
2022/07/06 08:45:29;;;;;;;;;;;;;;;-140.72;100.00;52155.50;5004523;28;19949;-69
2022/07/06 08:47:54;;;;;;;;;;;;;;;-140.72;100.00;52147.38;5021212;28;20290;-67
2022/07/06 08:50:20;;;;;;;;;;;;;;;-140.72;100.00;52157.53;5024075;28;19918;-68
2022/07/06 08:52:47;;;;;;;;;;;;;;;-140.72;100.00;52167.66;5019786;28;19917;-67
2022/07/06 08:55:13;;;;;;;;;;;;;;;-140.72;100.00;52159.56;5016569;28;19925;-68
2022/07/06 08:57:39;;;;;;;;;;;;;;;-140.72;100.00;52161.56;5016770;28;19964;-68
2022/07/06 09:00:06;;;;;;;;;;;;;;;-140.72;100.00;52141.28;5018866;28;19918;-68
2022/07/06 09:02:31;;;;;;;;;;;;;;;-140.72;100.00;52163.59;5022203;28;19918;-67
2022/07/06 09:05:03;;;;;;;;;;;;;;;-140.72;100.00;52173.75;5020972;28;19921;-68
2022/07/06 09:07:28;;;;;;;;;;;;;;;-140.72;100.00;52133.16;5011542;28;20038;-69
2022/07/06 09:09:54;;;;;;;;;;;;;;;-140.72;100.00;52129.13;5016245;28;19964;-68
2022/07/06 09:12:19;;;;;;;;;;;;;;;-140.72;100.00;52163.59;5020683;28;19964;-69
2022/07/06 09:14:44;;;;;;;;;;;;;;;-140.72;100.00;52110.84;5021924;28;19921;-68
2022/07/06 09:17:11;;;;;;;;;;;;;;;-140.72;100.00;52137.22;5010053;28;19948;-69
2022/07/06 09:19:37;;;;;;;;;;;;;;;-140.72;100.00;52125.06;5013858;28;19925;-69
2022/07/06 09:22:03;;;;;;;;;;;;;;;-140.72;100.00;52123.03;5001516;28;19918;-68
2022/07/06 09:24:28;;;;;;;;;;;;;;;-140.72;100.00;52143.31;5007498;28;20017;-68
2022/07/06 09:26:55;;;;;;;;;;;;;;;-140.72;100.00;52100.72;5012883;28;19929;-68
2022/07/06 09:29:26;;;;;;;;;;;;;;;-140.72;100.00;52161.56;5015984;28;19925;-68
2022/07/06 09:32:01;;;;;;;;;;;;;;;-140.72;100.00;52088.53;5011928;28;20303;-68
2022/07/06 09:34:42;;;;;;;;;;;;;;;-140.72;100.00;52100.72;5015550;28;19972;-68
2022/07/06 09:37:08;;;;;;;;;;;;;;;-140.72;100.00;52072.31;5004872;28;19921;-67
2022/07/06 09:39:33;;;;;;;;;;;;;;;-140.72;100.00;52102.75;5013195;28;19928;-71
2022/07/06 09:41:59;;;;;;;;;;;;;;;-140.72;100.00;52064.19;5001770;28;20335;-68
2022/07/06 09:44:30;;;;;;;;;;;;;;;-140.72;100.00;52098.69;5012144;28;19918;-70
2022/07/06 09:46:56;;;;;;;;;;;;;;;-140.72;100.00;52094.63;5014896;28;19918;-68
2022/07/06 09:49:22;;;;;;;;;;;;;;;-140.72;100.00;52047.97;5017972;28;19923;-68
2022/07/06 09:51:48;;;;;;;;;;;;;;;-140.72;100.00;52041.88;5011690;28;20016;-68
2022/07/06 09:54:14;;;;;;;;;;;;;;;-140.72;100.00;52062.16;5017524;28;19917;-69
2022/07/06 09:56:39;;;;;;;;;;;;;;;-140.72;100.00;52066.22;5015680;28;20013;-72
2022/07/06 09:59:07;;;;;;;;;;;;;;;-140.72;100.00;52082.44;5020289;28;19937;-68
2022/07/06 10:01:33;;;;;;;;;;;;;;;-140.72;100.00;52102.75;5017152;28;19922;-68
2022/07/06 10:03:58;;;;;;;;;;;;;;;-140.72;100.00;52045.94;5026838;28;20382;-69
2022/07/06 10:06:24;;;;;;;;;;;;;;;-140.72;100.00;52023.59;5025067;28;19968;-67
2022/07/06 10:08:50;;;;;;;;;;;;;;;-140.72;100.00;51972.88;5020331;28;19964;-67
2022/07/06 10:11:15;;;;;;;;;;;;;;;-140.72;93.04;51974.91;5027720;28;19921;-67
2022/07/06 10:13:42;;;;;;;;;;;;;;;-140.72;93.29;51981.00;5025543;28;19917;-67
2022/07/06 10:16:07;;;;;;;;;;;;;;;-140.72;95.81;51972.88;5032204;28;19949;-67
2022/07/06 10:18:33;;;;;;;;;;;;;;;-140.72;87.19;51970.84;5036852;28;19917;-67
2022/07/06 10:20:59;;;;;;;;;;;;;;;-140.72;88.18;51948.53;5036023;28;19918;-68
2022/07/06 10:23:25;;;;;;;;;;;;;;;-140.72;84.49;51952.59;5038747;28;20394;-68
2022/07/06 10:25:51;;;;;;;;;;;;;;;-140.72;86.20;52009.41;5018187;28;20055;-68
2022/07/06 10:28:17;;;;;;;;;;;;;;;-140.72;93.69;51962.75;5022327;28;19928;-68
2022/07/06 10:30:43;;;;;;;;;;;;;;;-140.72;92.58;51916.06;5034350;28;19917;-69
2022/07/06 10:33:09;;;;;;;;;;;;;;;-140.72;83.90;51887.66;5032747;28;19917;-67
2022/07/06 10:35:34;;;;;;;;;;;;;;;-140.72;75.90;51826.81;5034892;28;20002;-67
2022/07/06 10:38:06;;;;;;;;;;;;;;;-140.72;70.86;51784.19;5035167;28;20401;-67
2022/07/06 10:43:19;;;;;;;;;;;;;;;-140.72;70.82;51794.34;5026736;28;19928;-68
2022/07/06 10:45:44;;;;;;;;;;;;;;;-140.72;68.76;51792.31;5032033;28;19917;-68
2022/07/06 10:48:12;;;;;;;;;;;;;;;-140.72;62.06;51741.59;5015623;28;19953;-67
2022/07/06 10:50:39;;;;;;;;;;;;;;;-140.72;59.78;51737.53;5014773;28;20016;-66
2022/07/06 10:53:10;;;;;;;;;;;;;;;-140.72;58.09;51737.53;5024922;28;19952;-67
2022/07/06 10:55:37;;;;;;;;;;;;;;;-140.72;65.28;51727.41;5020655;28;19925;-67
2022/07/06 10:58:03;;;;;;;;;;;;;;;-140.72;67.77;51721.31;5032028;28;19940;-67
2022/07/06 11:00:47;;;;;;;;;;;;;;;-140.72;57.09;51678.72;5016817;28;20016;-68
2022/07/06 11:03:30;;;;;;;;;;;;;;;-140.72;58.25;51652.34;5016347;28;19918;-68
2022/07/06 11:05:59;;;;;;;;;;;;;;;-140.72;59.67;51749.72;5023496;28;19921;-67
2022/07/06 11:08:44;;;;;;;;;;;;;;;-140.72;56.88;51709.13;5020678;28;19937;-66
2022/07/06 11:11:12;;;;;;;;;;;;;;;-140.72;59.13;51737.53;5018699;28;19918;-68
2022/07/06 11:13:47;;;;;;;;;;;;;;;-140.72;61.98;51818.69;5020966;28;20013;-68
2022/07/06 11:16:13;;;;;;;;;;;;;;;-140.72;61.21;51763.91;5025650;28;19922;-68
2022/07/06 11:18:45;;;;;;;;;;;;;;;-140.72;60.87;51735.50;5010632;28;19918;-68
2022/07/06 11:21:21;;;;;;;;;;;;;;;-140.72;62.64;51751.75;5027896;28;20367;-69
2022/07/06 11:23:48;;;;;;;;;;;;;;;-140.72;64.58;51729.44;5026395;28;19949;-68
2022/07/06 11:26:13;;;;;;;;;;;;;;;-140.72;53.13;51660.44;5017044;28;19936;-67
2022/07/06 11:28:38;;;;;;;;;;;;;;;-140.72;54.49;51711.16;5030997;28;19949;-69
2022/07/06 11:31:03;;;;;;;;;;;;;;;-140.72;54.89;51709.13;5021965;28;19936;-68
2022/07/06 11:33:29;;;;;;;;;;;;;;;-140.72;61.69;51741.59;5022889;28;19985;-67
2022/07/06 11:36:11;;;;;;;;;;;;;;;-140.72;53.81;51692.91;5015452;28;19923;-68
2022/07/06 11:38:36;;;;;;;;;;;;;;;-140.72;58.84;51654.34;5025936;28;19989;-67
2022/07/06 11:41:01;;;;;;;;;;;;;;;-140.72;62.49;51636.09;5025602;28;19917;-67
2022/07/06 11:43:26;;;;;;;;;;;;;;;-140.72;59.45;51713.19;5016869;28;20111;-67
2022/07/06 11:45:51;;;;;;;;;;;;;;;-140.72;60.90;51684.78;5016601;28;19917;-67
2022/07/06 11:48:17;;;;;;;;;;;;;;;-140.72;62.18;51654.34;5028219;28;19924;-66
2022/07/06 11:50:42;;;;;;;;;;;;;;;-140.72;55.98;51632.03;5026069;28;19918;-67
2022/07/06 11:53:07;;;;;;;;;;;;;;;-140.72;57.07;51615.81;5020636;28;19918;-67
2022/07/06 11:55:33;;;;;;;;;;;;;;;-140.72;57.74;51603.63;5013175;28;19960;-67
2022/07/06 11:57:59;;;;;;;;;;;;;;;-140.72;53.39;51682.75;5009879;28;19917;-67
2022/07/06 12:00:24;;;;;;;;;;;;;;;-140.72;61.98;51759.84;5013634;28;19925;-67
2022/07/06 12:02:59;;;;;;;;;;;;;;;-140.72;64.36;51794.34;5029467;28;19985;-68
2022/07/06 12:05:31;;;;;;;;;;;;;;;-140.72;70.31;51808.53;5017451;28;19928;-68
2022/07/06 12:08:08;;;;;;;;;;;;;;;-140.72;71.58;51887.66;5017385;28;19922;-67
2022/07/06 12:10:35;;;;;;;;;;;;;;;-140.72;80.27;51928.25;5016020;28;19928;-68
2022/07/06 12:13:04;;;;;;;;;;;;;;;-140.72;85.06;51912.03;5023719;28;20346;-67
2022/07/06 12:15:29;;;;;;;;;;;;;;;-140.72;86.95;51928.25;5030321;28;19921;-68
2022/07/06 12:17:55;;;;;;;;;;;;;;;-140.72;85.15;51938.41;5029129;28;19921;-68
2022/07/06 12:20:20;;;;;;;;;;;;;;;-140.72;85.15;51901.88;5030221;28;19948;-68